Gorch Fock — DRAX — position and weather

sailwx.info

Track history (hours):
 
Tides and Currents Weather Stations Pressure Air Temp Water Temp Dewpoint Dewpoint Depression Visibility Wind Speed Wind Dir Waves Ship Positions

Gorch Fock (Germany)

Ship's website: http://www.marine.de/01DB070000000001/CurrentBaseLink/W2698K4S188INFODE

Last reported at 2014-Nov-27 17:32 UTC. Time now 2014-Nov-27 18:28 UTC.
Position N 38°41' W 009°10'.

Length 89 m; draft 5.4 m.

Type: Sailing vessel. MMSI: 211210280.

Date/timePositionNaut miles runAvg speedWind from/ knotsBaromVisibWave heightAir tempDewpointWater temp
2014-Nov-27 17:32N 38°41' W 009°10'0 0.0
2014-Nov-27 16:32N 38°41' W 009°10'0 0.0
2014-Nov-27 15:32N 38°41' W 009°10'0 0.0
2014-Nov-27 14:32N 38°41' W 009°10'0 0.1
2014-Nov-27 13:32N 38°41' W 009°10'0 0.0
2014-Nov-27 12:32N 38°41' W 009°10'0 0.0
2014-Nov-27 11:32N 38°41' W 009°10'0 0.0
2014-Nov-27 10:32N 38°41' W 009°10'0 0.0
2014-Nov-27 09:32N 38°41' W 009°10'0 0.0
2014-Nov-27 08:32N 38°41' W 009°10'0 0.0
2014-Nov-27 07:32N 38°41' W 009°10'0 0.0
2014-Nov-27 06:32N 38°41' W 009°10'0 0.1
2014-Nov-27 05:32N 38°41' W 009°10'0 0.0
2014-Nov-27 04:29N 38°41' W 009°10'0 0.0
2014-Nov-27 03:32N 38°41' W 009°10'0 0.0
2014-Nov-27 02:32N 38°41' W 009°10'0 0.1
2014-Nov-27 01:32N 38°41' W 009°10'0 0.1
2014-Nov-27 00:32N 38°41' W 009°10'0 0.0
2014-Nov-26 23:32N 38°41' W 009°10'0 0.0
2014-Nov-26 22:32N 38°41' W 009°10'0 0.0
2014-Nov-26 21:32N 38°41' W 009°10'0 0.0
2014-Nov-26 20:32N 38°41' W 009°10'0 0.0
2014-Nov-26 19:32N 38°41' W 009°10'0 0.0
2014-Nov-26 18:32N 38°41' W 009°10'0 0.1
2014-Nov-26 17:32N 38°41' W 009°10'0 0.0
2014-Nov-26 16:32N 38°41' W 009°10'0 0.0
2014-Nov-26 15:32N 38°41' W 009°10'3 3.4
2014-Nov-26 14:33N 38°41' W 009°14'22 7.2
2014-Nov-26 11:32N 38°22' W 009°29'9 9.2
2014-Nov-26 10:33N 38°13' W 009°31'6 5.6
2014-Nov-26 09:33N 38°08' W 009°29'6 6.3
2014-Nov-26 08:33N 38°02' W 009°28'5 4.9
2014-Nov-26 07:33N 37°57' W 009°27'5 5.1
2014-Nov-26 06:33N 37°52' W 009°26'4 3.9
2014-Nov-26 05:33N 37°48' W 009°26'2 2.1
2014-Nov-26 04:33N 37°46' W 009°25'1 1.4
2014-Nov-26 03:33N 37°45' W 009°26'0 0.4
2014-Nov-26 02:33N 37°44' W 009°26'1 0.7
2014-Nov-26 01:33N 37°44' W 009°27'1 1.5
2014-Nov-26 00:33N 37°45' W 009°27'1 1.0
2014-Nov-25 23:33N 37°46' W 009°26'2 2.0
2014-Nov-25 22:33N 37°47' W 009°24'2 2.3
2014-Nov-25 21:33N 37°48' W 009°22'4 3.6
2014-Nov-25 20:33N 37°50' W 009°18'4 3.7
2014-Nov-25 19:33N 37°52' W 009°14'3 3.0
2014-Nov-25 18:33N 37°53' W 009°10'3 2.9
2014-Nov-25 17:33N 37°51' W 009°13'5 5.0
2014-Nov-25 16:33N 37°49' W 009°19'4 3.9
2014-Nov-25 15:33N 37°47' W 009°23'5 4.9
2014-Nov-25 14:33N 37°46' W 009°29'5 5.1
2014-Nov-25 13:33N 37°49' W 009°24'4 4.0
2014-Nov-25 12:33N 37°51' W 009°20'4 4.2
2014-Nov-25 11:33N 37°52' W 009°15'3 2.9
2014-Nov-25 10:33N 37°53' W 009°11'2 2.2
2014-Nov-25 09:33N 37°54' W 009°09'7 6.8
2014-Nov-25 08:33N 37°53' W 009°17'6 5.9
2014-Nov-25 07:33N 37°52' W 009°25'3 2.5
2014-Nov-25 06:33N 37°53' W 009°28'3 2.5
2014-Nov-25 05:33N 37°53' W 009°24'4 3.8
2014-Nov-25 04:33N 37°53' W 009°20'5 4.6
2014-Nov-25 03:33N 37°53' W 009°14'3 3.2
2014-Nov-25 02:33N 37°52' W 009°18'6 6.0
2014-Nov-25 01:33N 37°50' W 009°25'2 2.0
2014-Nov-25 00:33N 37°49' W 009°27'4 3.9
2014-Nov-24 23:33N 37°50' W 009°22'4 3.8
2014-Nov-24 22:33N 37°50' W 009°18'4 4.1
2014-Nov-24 21:33N 37°51' W 009°13'2 1.6
2014-Nov-24 20:33N 37°53' W 009°11'8 8.4
2014-Nov-24 19:33N 37°50' W 009°22'7 6.9
2014-Nov-24 18:33N 37°49' W 009°30'5 5.2
2014-Nov-24 17:33N 37°50' W 009°37'15 7.3
2014-Nov-24 15:33N 37°51' W 009°55'6 1.5
2014-Nov-24 11:32N 37°49' W 009°48'4 3.9
2014-Nov-24 10:33N 37°48' W 009°43'4 3.6
2014-Nov-24 09:33N 37°46' W 009°39'2 2.5
2014-Nov-24 08:33N 37°45' W 009°36'2 1.9
2014-Nov-24 07:33N 37°44' W 009°34'3 2.6
2014-Nov-24 06:33N 37°43' W 009°32'3 2.9
2014-Nov-24 05:33N 37°41' W 009°29'3 3.4
2014-Nov-24 04:33N 37°39' W 009°25'4 3.8
2014-Nov-24 03:33N 37°37' W 009°21'3 3.1
2014-Nov-24 02:33N 37°36' W 009°17'1 0.9
2014-Nov-24 01:33N 37°37' W 009°17'6 6.2
2014-Nov-24 00:33N 37°40' W 009°24'6 6.4
2014-Nov-23 23:33N 37°40' W 009°32'7 6.8
2014-Nov-23 22:33N 37°40' W 009°41'33 1.2
2014-Nov-22 19:22N 37°16' W 010°11'12 6.2
2014-Nov-22 17:27N 37°12' W 009°57'3 3.4
2014-Nov-22 16:33N 37°10' W 009°54'5 4.9
2014-Nov-22 15:33N 37°09' W 009°48'5 4.9
2014-Nov-22 14:33N 37°08' W 009°42'5 5.2
2014-Nov-22 13:33N 37°06' W 009°36'4 3.7
2014-Nov-22 12:33N 37°05' W 009°31'3 3.4
2014-Nov-22 11:33N 37°04' W 009°27'3 2.8
2014-Nov-22 10:33N 37°03' W 009°24'3 2.8
2014-Nov-22 09:33N 37°02' W 009°21'3 3.2
2014-Nov-22 08:33N 36°58' W 009°20'4 3.8
2014-Nov-22 07:33N 36°55' W 009°20'13 6.4
2014-Nov-22 05:33N 36°45' W 009°09'8 7.8
2014-Nov-22 04:32N 36°43' W 008°60'8 7.9
2014-Nov-22 03:33N 36°43' W 008°50'8 7.9
2014-Nov-22 02:33N 36°42' W 008°40'8 7.8
2014-Nov-22 01:33N 36°41' W 008°31'2 1.8
2014-Nov-22 00:32N 36°42' W 008°29'1 1.2
2014-Nov-21 23:33N 36°41' W 008°27'2 1.7
2014-Nov-21 22:33N 36°41' W 008°25'2 2.1
2014-Nov-21 21:33N 36°41' W 008°23'2 2.3
2014-Nov-21 20:33N 36°40' W 008°20'3 2.7
2014-Nov-21 19:29N 36°40' W 008°16'3 2.8
2014-Nov-21 18:25N 36°40' W 008°12'134 4.9
2014-Nov-20 15:04N 35°57' W 005°35'5 9.8
2014-Nov-20 14:33N 35°59' W 005°29'7 7.2
2014-Nov-20 13:33N 36°02' W 005°21'7 7.2
2014-Nov-20 12:33N 36°06' W 005°13'  
Track history (hours):
 
Tides and Currents Weather Stations Pressure Air Temp Water Temp Dewpoint Dewpoint Depression Visibility Wind Speed Wind Dir Waves Ship Positions

Gorch Fock (Germany)

Ship's website: http://www.marine.de/01DB070000000001/CurrentBaseLink/W2698K4S188INFODE

Last reported at 2014-Nov-27 17:32 UTC. Time now 2014-Nov-27 18:28 UTC.
Position N 38°41' W 009°10'.

Length 89 m; draft 5.4 m.

Type: Sailing vessel. MMSI: 211210280.

Date/timePositionNaut miles runAvg speedWind from/ knotsBaromVisibWave heightAir tempDewpointWater temp
2014-Nov-27 17:32N 38°41' W 009°10'0 0.0
2014-Nov-27 16:32N 38°41' W 009°10'0 0.0
2014-Nov-27 15:32N 38°41' W 009°10'0 0.0
2014-Nov-27 14:32N 38°41' W 009°10'0 0.1
2014-Nov-27 13:32N 38°41' W 009°10'0 0.0
2014-Nov-27 12:32N 38°41' W 009°10'0 0.0
2014-Nov-27 11:32N 38°41' W 009°10'0 0.0
2014-Nov-27 10:32N 38°41' W 009°10'0 0.0
2014-Nov-27 09:32N 38°41' W 009°10'0 0.0
2014-Nov-27 08:32N 38°41' W 009°10'0 0.0
2014-Nov-27 07:32N 38°41' W 009°10'0 0.0
2014-Nov-27 06:32N 38°41' W 009°10'0 0.1
2014-Nov-27 05:32N 38°41' W 009°10'0 0.0
2014-Nov-27 04:29N 38°41' W 009°10'0 0.0
2014-Nov-27 03:32N 38°41' W 009°10'0 0.0
2014-Nov-27 02:32N 38°41' W 009°10'0 0.1
2014-Nov-27 01:32N 38°41' W 009°10'0 0.1
2014-Nov-27 00:32N 38°41' W 009°10'0 0.0
2014-Nov-26 23:32N 38°41' W 009°10'0 0.0
2014-Nov-26 22:32N 38°41' W 009°10'0 0.0
2014-Nov-26 21:32N 38°41' W 009°10'0 0.0
2014-Nov-26 20:32N 38°41' W 009°10'0 0.0
2014-Nov-26 19:32N 38°41' W 009°10'0 0.0
2014-Nov-26 18:32N 38°41' W 009°10'0 0.1
2014-Nov-26 17:32N 38°41' W 009°10'0 0.0
2014-Nov-26 16:32N 38°41' W 009°10'0 0.0
2014-Nov-26 15:32N 38°41' W 009°10'3 3.4
2014-Nov-26 14:33N 38°41' W 009°14'22 7.2
2014-Nov-26 11:32N 38°22' W 009°29'9 9.2
2014-Nov-26 10:33N 38°13' W 009°31'6 5.6
2014-Nov-26 09:33N 38°08' W 009°29'6 6.3
2014-Nov-26 08:33N 38°02' W 009°28'5 4.9
2014-Nov-26 07:33N 37°57' W 009°27'5 5.1
2014-Nov-26 06:33N 37°52' W 009°26'4 3.9
2014-Nov-26 05:33N 37°48' W 009°26'2 2.1
2014-Nov-26 04:33N 37°46' W 009°25'1 1.4
2014-Nov-26 03:33N 37°45' W 009°26'0 0.4
2014-Nov-26 02:33N 37°44' W 009°26'1 0.7
2014-Nov-26 01:33N 37°44' W 009°27'1 1.5
2014-Nov-26 00:33N 37°45' W 009°27'1 1.0
2014-Nov-25 23:33N 37°46' W 009°26'2 2.0
2014-Nov-25 22:33N 37°47' W 009°24'2 2.3
2014-Nov-25 21:33N 37°48' W 009°22'4 3.6
2014-Nov-25 20:33N 37°50' W 009°18'4 3.7
2014-Nov-25 19:33N 37°52' W 009°14'3 3.0
2014-Nov-25 18:33N 37°53' W 009°10'3 2.9
2014-Nov-25 17:33N 37°51' W 009°13'5 5.0
2014-Nov-25 16:33N 37°49' W 009°19'4 3.9
2014-Nov-25 15:33N 37°47' W 009°23'5 4.9
2014-Nov-25 14:33N 37°46' W 009°29'5 5.1
2014-Nov-25 13:33N 37°49' W 009°24'4 4.0
2014-Nov-25 12:33N 37°51' W 009°20'4 4.2
2014-Nov-25 11:33N 37°52' W 009°15'3 2.9
2014-Nov-25 10:33N 37°53' W 009°11'2 2.2
2014-Nov-25 09:33N 37°54' W 009°09'7 6.8
2014-Nov-25 08:33N 37°53' W 009°17'6 5.9
2014-Nov-25 07:33N 37°52' W 009°25'3 2.5
2014-Nov-25 06:33N 37°53' W 009°28'3 2.5
2014-Nov-25 05:33N 37°53' W 009°24'4 3.8
2014-Nov-25 04:33N 37°53' W 009°20'5 4.6
2014-Nov-25 03:33N 37°53' W 009°14'3 3.2
2014-Nov-25 02:33N 37°52' W 009°18'6 6.0
2014-Nov-25 01:33N 37°50' W 009°25'2 2.0
2014-Nov-25 00:33N 37°49' W 009°27'4 3.9
2014-Nov-24 23:33N 37°50' W 009°22'4 3.8
2014-Nov-24 22:33N 37°50' W 009°18'4 4.1
2014-Nov-24 21:33N 37°51' W 009°13'2 1.6
2014-Nov-24 20:33N 37°53' W 009°11'8 8.4
2014-Nov-24 19:33N 37°50' W 009°22'7 6.9
2014-Nov-24 18:33N 37°49' W 009°30'5 5.2
2014-Nov-24 17:33N 37°50' W 009°37'15 7.3
2014-Nov-24 15:33N 37°51' W 009°55'6 1.5
2014-Nov-24 11:32N 37°49' W 009°48'4 3.9
2014-Nov-24 10:33N 37°48' W 009°43'4 3.6
2014-Nov-24 09:33N 37°46' W 009°39'2 2.5
2014-Nov-24 08:33N 37°45' W 009°36'2 1.9
2014-Nov-24 07:33N 37°44' W 009°34'3 2.6
2014-Nov-24 06:33N 37°43' W 009°32'3 2.9
2014-Nov-24 05:33N 37°41' W 009°29'3 3.4
2014-Nov-24 04:33N 37°39' W 009°25'4 3.8
2014-Nov-24 03:33N 37°37' W 009°21'3 3.1
2014-Nov-24 02:33N 37°36' W 009°17'1 0.9
2014-Nov-24 01:33N 37°37' W 009°17'6 6.2
2014-Nov-24 00:33N 37°40' W 009°24'6 6.4
2014-Nov-23 23:33N 37°40' W 009°32'7 6.8
2014-Nov-23 22:33N 37°40' W 009°41'33 1.2
2014-Nov-22 19:22N 37°16' W 010°11'12 6.2
2014-Nov-22 17:27N 37°12' W 009°57'3 3.4
2014-Nov-22 16:33N 37°10' W 009°54'5 4.9
2014-Nov-22 15:33N 37°09' W 009°48'5 4.9
2014-Nov-22 14:33N 37°08' W 009°42'5 5.2
2014-Nov-22 13:33N 37°06' W 009°36'4 3.7
2014-Nov-22 12:33N 37°05' W 009°31'3 3.4
2014-Nov-22 11:33N 37°04' W 009°27'3 2.8
2014-Nov-22 10:33N 37°03' W 009°24'3 2.8
2014-Nov-22 09:33N 37°02' W 009°21'3 3.2
2014-Nov-22 08:33N 36°58' W 009°20'4 3.8
2014-Nov-22 07:33N 36°55' W 009°20'13 6.4
2014-Nov-22 05:33N 36°45' W 009°09'8 7.8
2014-Nov-22 04:32N 36°43' W 008°60'8 7.9
2014-Nov-22 03:33N 36°43' W 008°50'8 7.9
2014-Nov-22 02:33N 36°42' W 008°40'8 7.8
2014-Nov-22 01:33N 36°41' W 008°31'2 1.8
2014-Nov-22 00:32N 36°42' W 008°29'1 1.2
2014-Nov-21 23:33N 36°41' W 008°27'2 1.7
2014-Nov-21 22:33N 36°41' W 008°25'2 2.1
2014-Nov-21 21:33N 36°41' W 008°23'2 2.3
2014-Nov-21 20:33N 36°40' W 008°20'3 2.7
2014-Nov-21 19:29N 36°40' W 008°16'3 2.8
2014-Nov-21 18:25N 36°40' W 008°12'134 4.9
2014-Nov-20 15:04N 35°57' W 005°35'5 9.8
2014-Nov-20 14:33N 35°59' W 005°29'7 7.2
2014-Nov-20 13:33N 36°02' W 005°21'7 7.2
2014-Nov-20 12:33N 36°06' W 005°13'  

Dump ship's entire track history